sensor_id;sensor_type;location;lat;lon;timestamp;temperature;humidity
20345;DHT22;10330;48.816;9.278;2023-09-18T00:06:10;21.90;99.90
20345;DHT22;10330;48.816;9.278;2023-09-18T00:08:39;21.80;99.90
20345;DHT22;10330;48.816;9.278;2023-09-18T00:11:06;21.80;99.90
20345;DHT22;10330;48.816;9.278;2023-09-18T00:13:36;21.80;99.90
20345;DHT22;10330;48.816;9.278;2023-09-18T00:16:53;21.70;99.90
20345;DHT22;10330;48.816;9.278;2023-09-18T00:34:30;21.60;99.90
20345;DHT22;10330;48.816;9.278;2023-09-18T00:45:14;21.60;99.90
20345;DHT22;10330;48.816;9.278;2023-09-18T00:47:53;21.60;99.90
20345;DHT22;10330;48.816;9.278;2023-09-18T00:53:52;21.60;99.90
20345;DHT22;10330;48.816;9.278;2023-09-18T01:36:08;21.50;99.90
20345;DHT22;10330;48.816;9.278;2023-09-18T01:38:39;21.60;99.90
20345;DHT22;10330;48.816;9.278;2023-09-18T01:44:32;21.60;99.90
20345;DHT22;10330;48.816;9.278;2023-09-18T01:47:47;21.60;99.90
20345;DHT22;10330;48.816;9.278;2023-09-18T01:50:41;22.00;99.90
20345;DHT22;10330;48.816;9.278;2023-09-18T01:54:15;22.10;99.90
20345;DHT22;10330;48.816;9.278;2023-09-18T02:19:14;22.80;99.90
20345;DHT22;10330;48.816;9.278;2023-09-18T02:37:15;22.20;99.90
20345;DHT22;10330;48.816;9.278;2023-09-18T02:43:44;21.90;99.90
20345;DHT22;10330;48.816;9.278;2023-09-18T03:29:48;20.90;99.90
20345;DHT22;10330;48.816;9.278;2023-09-18T03:32:50;20.90;99.90
20345;DHT22;10330;48.816;9.278;2023-09-18T03:36:09;20.90;99.90
20345;DHT22;10330;48.816;9.278;2023-09-18T03:38:38;20.80;99.90
20345;DHT22;10330;48.816;9.278;2023-09-18T03:44:16;20.80;99.90
20345;DHT22;10330;48.816;9.278;2023-09-18T03:46:46;20.80;99.90
20345;DHT22;10330;48.816;9.278;2023-09-18T03:49:13;20.80;99.90
20345;DHT22;10330;48.816;9.278;2023-09-18T03:51:39;20.80;99.90
20345;DHT22;10330;48.816;9.278;2023-09-18T03:54:05;20.80;99.90
20345;DHT22;10330;48.816;9.278;2023-09-18T03:56:32;20.80;99.90
20345;DHT22;10330;48.816;9.278;2023-09-18T03:58:59;20.70;99.90
20345;DHT22;10330;48.816;9.278;2023-09-18T04:01:30;20.70;99.90
20345;DHT22;10330;48.816;9.278;2023-09-18T04:03:56;20.60;99.90
20345;DHT22;10330;48.816;9.278;2023-09-18T04:06:24;20.60;99.90
20345;DHT22;10330;48.816;9.278;2023-09-18T04:08:50;20.70;99.90
20345;DHT22;10330;48.816;9.278;2023-09-18T04:11:17;20.60;99.90
20345;DHT22;10330;48.816;9.278;2023-09-18T04:13:46;20.60;99.90
20345;DHT22;10330;48.816;9.278;2023-09-18T04:16:20;20.70;99.90
20345;DHT22;10330;48.816;9.278;2023-09-18T04:18:58;20.70;99.90
20345;DHT22;10330;48.816;9.278;2023-09-18T04:21:40;20.70;99.90
20345;DHT22;10330;48.816;9.278;2023-09-18T04:24:32;20.60;99.90
20345;DHT22;10330;48.816;9.278;2023-09-18T04:38:53;20.80;99.90
20345;DHT22;10330;48.816;9.278;2023-09-18T04:41:23;20.90;99.90
20345;DHT22;10330;48.816;9.278;2023-09-18T04:43:58;20.90;99.90
20345;DHT22;10330;48.816;9.278;2023-09-18T04:46:32;20.80;99.90
20345;DHT22;10330;48.816;9.278;2023-09-18T04:49:08;20.70;99.90
20345;DHT22;10330;48.816;9.278;2023-09-18T04:51:57;20.70;99.90
20345;DHT22;10330;48.816;9.278;2023-09-18T04:54:37;20.60;99.90
20345;DHT22;10330;48.816;9.278;2023-09-18T04:57:09;20.60;99.90
20345;DHT22;10330;48.816;9.278;2023-09-18T04:59:45;20.60;99.90
20345;DHT22;10330;48.816;9.278;2023-09-18T05:02:12;20.60;99.90
20345;DHT22;10330;48.816;9.278;2023-09-18T05:05:20;20.50;99.90
20345;DHT22;10330;48.816;9.278;2023-09-18T05:08:00;20.50;99.90
20345;DHT22;10330;48.816;9.278;2023-09-18T05:11:34;20.40;99.90
20345;DHT22;10330;48.816;9.278;2023-09-18T05:14:20;20.40;99.90
20345;DHT22;10330;48.816;9.278;2023-09-18T05:17:27;20.40;99.90
20345;DHT22;10330;48.816;9.278;2023-09-18T05:20:42;20.40;99.90
20345;DHT22;10330;48.816;9.278;2023-09-18T05:31:49;20.40;99.90
20345;DHT22;10330;48.816;9.278;2023-09-18T05:34:36;20.40;99.90
20345;DHT22;10330;48.816;9.278;2023-09-18T05:37:50;20.30;99.90
20345;DHT22;10330;48.816;9.278;2023-09-18T05:52:11;20.50;99.90
20345;DHT22;10330;48.816;9.278;2023-09-18T06:51:39;21.00;99.90
20345;DHT22;10330;48.816;9.278;2023-09-18T06:54:21;20.70;99.90
20345;DHT22;10330;48.816;9.278;2023-09-18T06:57:37;20.70;99.90
20345;DHT22;10330;48.816;9.278;2023-09-18T07:00:38;20.60;99.90
20345;DHT22;10330;48.816;9.278;2023-09-18T07:06:32;20.60;99.90
20345;DHT22;10330;48.816;9.278;2023-09-18T07:09:38;20.40;99.90
20345;DHT22;10330;48.816;9.278;2023-09-18T07:12:58;20.50;99.90
20345;DHT22;10330;48.816;9.278;2023-09-18T07:23:40;20.70;99.90
20345;DHT22;10330;48.816;9.278;2023-09-18T07:26:07;20.70;99.90
20345;DHT22;10330;48.816;9.278;2023-09-18T07:28:33;20.70;99.90
20345;DHT22;10330;48.816;9.278;2023-09-18T07:43:01;20.70;99.90
20345;DHT22;10330;48.816;9.278;2023-09-18T07:46:19;20.60;99.90
20345;DHT22;10330;48.816;9.278;2023-09-18T08:00:41;21.00;99.90
20345;DHT22;10330;48.816;9.278;2023-09-18T08:03:36;21.00;99.90
20345;DHT22;10330;48.816;9.278;2023-09-18T08:10:39;21.20;99.90
20345;DHT22;10330;48.816;9.278;2023-09-18T08:22:46;21.50;99.90
20345;DHT22;10330;48.816;9.278;2023-09-18T08:25:33;21.60;99.90
20345;DHT22;10330;48.816;9.278;2023-09-18T08:28:00;21.50;99.90
20345;DHT22;10330;48.816;9.278;2023-09-18T08:30:58;21.50;99.90
20345;DHT22;10330;48.816;9.278;2023-09-18T08:33:36;21.40;99.90
20345;DHT22;10330;48.816;9.278;2023-09-18T08:36:02;21.40;99.90
20345;DHT22;10330;48.816;9.278;2023-09-18T08:38:55;21.30;99.90
20345;DHT22;10330;48.816;9.278;2023-09-18T08:41:24;21.30;99.90
20345;DHT22;10330;48.816;9.278;2023-09-18T08:44:00;21.20;99.90
20345;DHT22;10330;48.816;9.278;2023-09-18T08:46:39;21.10;99.90
20345;DHT22;10330;48.816;9.278;2023-09-18T08:49:38;21.00;99.90
20345;DHT22;10330;48.816;9.278;2023-09-18T08:52:09;21.00;99.90
20345;DHT22;10330;48.816;9.278;2023-09-18T08:54:36;20.90;99.90
20345;DHT22;10330;48.816;9.278;2023-09-18T08:57:14;20.70;99.90
20345;DHT22;10330;48.816;9.278;2023-09-18T09:00:22;20.70;99.90
20345;DHT22;10330;48.816;9.278;2023-09-18T09:02:54;20.60;99.90
20345;DHT22;10330;48.816;9.278;2023-09-18T09:05:52;20.60;99.90
20345;DHT22;10330;48.816;9.278;2023-09-18T09:08:41;20.40;99.90
20345;DHT22;10330;48.816;9.278;2023-09-18T09:11:11;20.00;99.90
20345;DHT22;10330;48.816;9.278;2023-09-18T09:13:39;19.90;99.90
20345;DHT22;10330;48.816;9.278;2023-09-18T09:16:05;19.70;99.90
20345;DHT22;10330;48.816;9.278;2023-09-18T09:18:31;19.70;99.90
20345;DHT22;10330;48.816;9.278;2023-09-18T09:21:02;19.70;99.90
20345;DHT22;10330;48.816;9.278;2023-09-18T09:23:50;19.70;99.90
20345;DHT22;10330;48.816;9.278;2023-09-18T09:26:23;19.70;99.90
20345;DHT22;10330;48.816;9.278;2023-09-18T09:28:50;19.80;99.90
20345;DHT22;10330;48.816;9.278;2023-09-18T09:31:28;19.80;99.90
20345;DHT22;10330;48.816;9.278;2023-09-18T09:33:55;19.90;99.90
20345;DHT22;10330;48.816;9.278;2023-09-18T09:36:25;19.90;99.90
20345;DHT22;10330;48.816;9.278;2023-09-18T09:38:56;19.90;99.90
20345;DHT22;10330;48.816;9.278;2023-09-18T09:41:25;19.80;99.90
20345;DHT22;10330;48.816;9.278;2023-09-18T09:43:54;19.80;99.90
20345;DHT22;10330;48.816;9.278;2023-09-18T09:46:22;19.70;99.90
20345;DHT22;10330;48.816;9.278;2023-09-18T09:49:01;19.80;99.90
20345;DHT22;10330;48.816;9.278;2023-09-18T09:51:28;19.80;99.90
20345;DHT22;10330;48.816;9.278;2023-09-18T09:53:55;19.90;99.90
20345;DHT22;10330;48.816;9.278;2023-09-18T09:56:47;19.90;99.90
20345;DHT22;10330;48.816;9.278;2023-09-18T10:00:04;20.10;99.90
20345;DHT22;10330;48.816;9.278;2023-09-18T10:02:52;20.20;99.90
20345;DHT22;10330;48.816;9.278;2023-09-18T10:05:35;20.20;99.90
20345;DHT22;10330;48.816;9.278;2023-09-18T10:08:25;20.20;99.90
20345;DHT22;10330;48.816;9.278;2023-09-18T10:11:26;20.30;99.90
20345;DHT22;10330;48.816;9.278;2023-09-18T10:14:37;20.30;99.90
20345;DHT22;10330;48.816;9.278;2023-09-18T10:17:22;20.40;99.90
20345;DHT22;10330;48.816;9.278;2023-09-18T10:26:00;20.20;99.90
20345;DHT22;10330;48.816;9.278;2023-09-18T10:28:30;20.20;99.90
20345;DHT22;10330;48.816;9.278;2023-09-18T10:30:58;20.10;99.90
20345;DHT22;10330;48.816;9.278;2023-09-18T10:33:33;20.10;99.90
20345;DHT22;10330;48.816;9.278;2023-09-18T10:36:03;20.00;99.90
20345;DHT22;10330;48.816;9.278;2023-09-18T10:38:33;19.90;99.90
20345;DHT22;10330;48.816;9.278;2023-09-18T10:41:00;19.80;99.90
20345;DHT22;10330;48.816;9.278;2023-09-18T10:43:27;19.90;99.90
20345;DHT22;10330;48.816;9.278;2023-09-18T10:45:54;19.90;99.90
20345;DHT22;10330;48.816;9.278;2023-09-18T10:48:21;19.90;99.90
20345;DHT22;10330;48.816;9.278;2023-09-18T10:50:49;20.00;99.90
20345;DHT22;10330;48.816;9.278;2023-09-18T10:53:18;20.00;99.90
20345;DHT22;10330;48.816;9.278;2023-09-18T10:55:46;19.80;99.90
20345;DHT22;10330;48.816;9.278;2023-09-18T10:58:12;19.80;99.90
20345;DHT22;10330;48.816;9.278;2023-09-18T11:00:49;19.90;99.90
20345;DHT22;10330;48.816;9.278;2023-09-18T11:03:16;19.90;99.90
20345;DHT22;10330;48.816;9.278;2023-09-18T11:05:47;19.90;99.90
20345;DHT22;10330;48.816;9.278;2023-09-18T11:11:07;19.90;99.90
20345;DHT22;10330;48.816;9.278;2023-09-18T11:13:43;19.90;99.90
20345;DHT22;10330;48.816;9.278;2023-09-18T11:21:28;20.00;99.90
20345;DHT22;10330;48.816;9.278;2023-09-18T11:24:02;20.00;99.90
20345;DHT22;10330;48.816;9.278;2023-09-18T11:26:33;20.00;99.90
20345;DHT22;10330;48.816;9.278;2023-09-18T11:29:33;20.00;99.90
20345;DHT22;10330;48.816;9.278;2023-09-18T11:32:03;19.90;99.90
20345;DHT22;10330;48.816;9.278;2023-09-18T11:34:38;19.90;99.90
20345;DHT22;10330;48.816;9.278;2023-09-18T11:37:31;19.90;99.90
20345;DHT22;10330;48.816;9.278;2023-09-18T11:39:58;19.90;99.90
20345;DHT22;10330;48.816;9.278;2023-09-18T11:45:24;20.00;99.90
20345;DHT22;10330;48.816;9.278;2023-09-18T11:47:50;20.10;99.90
20345;DHT22;10330;48.816;9.278;2023-09-18T11:50:21;20.10;99.90
20345;DHT22;10330;48.816;9.278;2023-09-18T11:52:48;20.10;99.90
20345;DHT22;10330;48.816;9.278;2023-09-18T11:55:14;20.10;99.90
20345;DHT22;10330;48.816;9.278;2023-09-18T11:57:41;20.20;99.90
20345;DHT22;10330;48.816;9.278;2023-09-18T12:00:20;20.30;99.90
20345;DHT22;10330;48.816;9.278;2023-09-18T12:02:49;20.40;99.90
20345;DHT22;10330;48.816;9.278;2023-09-18T12:05:17;20.50;99.90
20345;DHT22;10330;48.816;9.278;2023-09-18T12:07:45;20.60;99.90
20345;DHT22;10330;48.816;9.278;2023-09-18T12:10:13;20.40;99.90
20345;DHT22;10330;48.816;9.278;2023-09-18T12:12:42;20.40;99.90
20345;DHT22;10330;48.816;9.278;2023-09-18T12:15:17;20.40;99.90
20345;DHT22;10330;48.816;9.278;2023-09-18T12:17:43;20.60;99.90
20345;DHT22;10330;48.816;9.278;2023-09-18T12:20:17;20.50;99.90
20345;DHT22;10330;48.816;9.278;2023-09-18T12:22:48;20.60;99.90
20345;DHT22;10330;48.816;9.278;2023-09-18T12:25:15;20.50;99.90
20345;DHT22;10330;48.816;9.278;2023-09-18T12:27:43;20.50;99.90
20345;DHT22;10330;48.816;9.278;2023-09-18T12:30:11;20.60;99.90
20345;DHT22;10330;48.816;9.278;2023-09-18T12:32:38;20.50;99.90
20345;DHT22;10330;48.816;9.278;2023-09-18T12:35:08;20.50;99.90
20345;DHT22;10330;48.816;9.278;2023-09-18T12:37:39;20.60;99.90
20345;DHT22;10330;48.816;9.278;2023-09-18T12:40:07;20.50;99.90
20345;DHT22;10330;48.816;9.278;2023-09-18T12:42:47;20.60;99.90
20345;DHT22;10330;48.816;9.278;2023-09-18T12:45:13;20.70;99.90
20345;DHT22;10330;48.816;9.278;2023-09-18T12:47:40;20.90;99.90
20345;DHT22;10330;48.816;9.278;2023-09-18T12:50:09;21.10;99.90
20345;DHT22;10330;48.816;9.278;2023-09-18T12:52:38;21.40;99.90
20345;DHT22;10330;48.816;9.278;2023-09-18T12:55:04;21.70;99.90
20345;DHT22;10330;48.816;9.278;2023-09-18T12:57:35;22.10;99.90
20345;DHT22;10330;48.816;9.278;2023-09-18T13:00:09;22.30;99.90
20345;DHT22;10330;48.816;9.278;2023-09-18T13:02:38;22.40;99.90
20345;DHT22;10330;48.816;9.278;2023-09-18T13:05:06;22.50;99.90
20345;DHT22;10330;48.816;9.278;2023-09-18T13:07:44;22.60;99.90
20345;DHT22;10330;48.816;9.278;2023-09-18T13:10:11;22.30;99.90
20345;DHT22;10330;48.816;9.278;2023-09-18T13:12:51;22.40;99.90
20345;DHT22;10330;48.816;9.278;2023-09-18T13:17:58;22.60;99.90
20345;DHT22;10330;48.816;9.278;2023-09-18T13:20:26;22.70;99.90
20345;DHT22;10330;48.816;9.278;2023-09-18T13:22:56;22.90;99.90
20345;DHT22;10330;48.816;9.278;2023-09-18T13:25:24;22.80;99.90
20345;DHT22;10330;48.816;9.278;2023-09-18T13:27:52;22.90;99.90
20345;DHT22;10330;48.816;9.278;2023-09-18T13:30:19;22.80;99.90
20345;DHT22;10330;48.816;9.278;2023-09-18T13:32:49;22.80;99.90
20345;DHT22;10330;48.816;9.278;2023-09-18T13:35:19;22.90;99.90
20345;DHT22;10330;48.816;9.278;2023-09-18T13:37:45;22.90;99.90
20345;DHT22;10330;48.816;9.278;2023-09-18T13:40:12;23.00;99.90
20345;DHT22;10330;48.816;9.278;2023-09-18T13:42:38;23.40;99.90
20345;DHT22;10330;48.816;9.278;2023-09-18T13:45:05;24.30;99.90
20345;DHT22;10330;48.816;9.278;2023-09-18T13:47:33;24.90;99.90
20345;DHT22;10330;48.816;9.278;2023-09-18T13:50:00;25.10;99.90
20345;DHT22;10330;48.816;9.278;2023-09-18T13:52:30;25.10;99.90
20345;DHT22;10330;48.816;9.278;2023-09-18T13:54:57;25.00;99.90
20345;DHT22;10330;48.816;9.278;2023-09-18T13:57:23;24.80;99.90
20345;DHT22;10330;48.816;9.278;2023-09-18T13:59:51;24.60;99.90
20345;DHT22;10330;48.816;9.278;2023-09-18T14:02:18;24.40;99.90
20345;DHT22;10330;48.816;9.278;2023-09-18T14:04:44;23.90;99.90
20345;DHT22;10330;48.816;9.278;2023-09-18T14:07:11;23.70;99.90
20345;DHT22;10330;48.816;9.278;2023-09-18T14:09:38;23.60;99.90
20345;DHT22;10330;48.816;9.278;2023-09-18T14:12:05;23.70;99.90
20345;DHT22;10330;48.816;9.278;2023-09-18T14:14:33;23.60;99.90
20345;DHT22;10330;48.816;9.278;2023-09-18T14:17:02;23.50;99.90
20345;DHT22;10330;48.816;9.278;2023-09-18T14:19:30;23.40;99.90
20345;DHT22;10330;48.816;9.278;2023-09-18T14:21:56;23.40;99.90
20345;DHT22;10330;48.816;9.278;2023-09-18T14:24:22;23.40;99.90
20345;DHT22;10330;48.816;9.278;2023-09-18T14:26:52;23.30;99.90
20345;DHT22;10330;48.816;9.278;2023-09-18T14:29:18;23.20;99.90
20345;DHT22;10330;48.816;9.278;2023-09-18T14:31:45;23.20;99.90
20345;DHT22;10330;48.816;9.278;2023-09-18T14:34:11;23.30;99.90
20345;DHT22;10330;48.816;9.278;2023-09-18T14:36:37;23.30;99.90
20345;DHT22;10330;48.816;9.278;2023-09-18T14:39:06;23.20;99.90
20345;DHT22;10330;48.816;9.278;2023-09-18T14:41:37;23.10;99.90
20345;DHT22;10330;48.816;9.278;2023-09-18T14:44:04;23.00;99.90
20345;DHT22;10330;48.816;9.278;2023-09-18T14:46:31;23.10;99.90
20345;DHT22;10330;48.816;9.278;2023-09-18T14:49:06;23.20;99.90
20345;DHT22;10330;48.816;9.278;2023-09-18T14:51:34;23.40;99.90
20345;DHT22;10330;48.816;9.278;2023-09-18T14:54:01;23.60;99.90
20345;DHT22;10330;48.816;9.278;2023-09-18T14:56:28;24.00;99.90
20345;DHT22;10330;48.816;9.278;2023-09-18T14:58:54;24.30;99.90
20345;DHT22;10330;48.816;9.278;2023-09-18T15:01:22;24.60;99.90
20345;DHT22;10330;48.816;9.278;2023-09-18T15:03:48;24.80;99.90
20345;DHT22;10330;48.816;9.278;2023-09-18T15:06:15;25.00;99.90
20345;DHT22;10330;48.816;9.278;2023-09-18T15:08:41;25.30;99.90
20345;DHT22;10330;48.816;9.278;2023-09-18T15:11:08;25.40;99.90
20345;DHT22;10330;48.816;9.278;2023-09-18T15:13:34;25.40;99.90
20345;DHT22;10330;48.816;9.278;2023-09-18T15:16:02;25.10;99.90
20345;DHT22;10330;48.816;9.278;2023-09-18T15:18:28;24.40;99.90
20345;DHT22;10330;48.816;9.278;2023-09-18T15:20:55;24.40;99.90
20345;DHT22;10330;48.816;9.278;2023-09-18T15:23:22;24.30;99.90
20345;DHT22;10330;48.816;9.278;2023-09-18T15:25:50;24.40;99.90
20345;DHT22;10330;48.816;9.278;2023-09-18T15:28:16;24.30;99.90
20345;DHT22;10330;48.816;9.278;2023-09-18T15:30:46;24.10;99.90
20345;DHT22;10330;48.816;9.278;2023-09-18T15:33:13;24.00;99.90
20345;DHT22;10330;48.816;9.278;2023-09-18T15:35:43;23.90;99.90
20345;DHT22;10330;48.816;9.278;2023-09-18T15:38:10;23.60;99.90
20345;DHT22;10330;48.816;9.278;2023-09-18T15:40:37;23.80;99.90
20345;DHT22;10330;48.816;9.278;2023-09-18T15:43:03;24.10;99.90
20345;DHT22;10330;48.816;9.278;2023-09-18T15:45:29;24.40;99.90
20345;DHT22;10330;48.816;9.278;2023-09-18T15:47:55;24.40;99.90
20345;DHT22;10330;48.816;9.278;2023-09-18T15:50:22;24.40;99.90
20345;DHT22;10330;48.816;9.278;2023-09-18T15:52:48;24.20;99.90
20345;DHT22;10330;48.816;9.278;2023-09-18T15:55:15;24.50;99.90
20345;DHT22;10330;48.816;9.278;2023-09-18T15:57:41;24.80;99.90
20345;DHT22;10330;48.816;9.278;2023-09-18T16:00:11;24.90;99.90
20345;DHT22;10330;48.816;9.278;2023-09-18T16:02:38;24.90;99.90
20345;DHT22;10330;48.816;9.278;2023-09-18T16:05:06;25.00;99.90
20345;DHT22;10330;48.816;9.278;2023-09-18T16:07:34;24.90;99.90
20345;DHT22;10330;48.816;9.278;2023-09-18T16:10:04;24.60;99.90
20345;DHT22;10330;48.816;9.278;2023-09-18T16:12:30;24.20;99.90
20345;DHT22;10330;48.816;9.278;2023-09-18T16:14:57;24.00;99.90
20345;DHT22;10330;48.816;9.278;2023-09-18T16:17:23;23.90;99.90
20345;DHT22;10330;48.816;9.278;2023-09-18T16:19:49;23.80;99.90
20345;DHT22;10330;48.816;9.278;2023-09-18T16:22:15;23.60;99.90
20345;DHT22;10330;48.816;9.278;2023-09-18T16:24:42;23.50;99.90
20345;DHT22;10330;48.816;9.278;2023-09-18T16:27:09;23.20;99.90
20345;DHT22;10330;48.816;9.278;2023-09-18T16:29:38;23.00;99.90
20345;DHT22;10330;48.816;9.278;2023-09-18T16:32:05;22.80;99.90
20345;DHT22;10330;48.816;9.278;2023-09-18T16:34:33;22.80;99.90
20345;DHT22;10330;48.816;9.278;2023-09-18T16:37:00;22.60;99.90
20345;DHT22;10330;48.816;9.278;2023-09-18T16:39:27;22.40;99.90
20345;DHT22;10330;48.816;9.278;2023-09-18T16:41:53;22.20;99.90
20345;DHT22;10330;48.816;9.278;2023-09-18T16:44:19;22.20;99.90
20345;DHT22;10330;48.816;9.278;2023-09-18T16:46:46;22.00;99.90
20345;DHT22;10330;48.816;9.278;2023-09-18T16:49:12;22.00;99.90
20345;DHT22;10330;48.816;9.278;2023-09-18T16:51:40;21.90;99.90
20345;DHT22;10330;48.816;9.278;2023-09-18T16:54:08;21.90;99.90
20345;DHT22;10330;48.816;9.278;2023-09-18T16:56:35;21.80;99.90
20345;DHT22;10330;48.816;9.278;2023-09-18T16:59:03;21.70;99.90
20345;DHT22;10330;48.816;9.278;2023-09-18T17:01:30;21.60;99.90
20345;DHT22;10330;48.816;9.278;2023-09-18T17:03:56;21.60;99.90
20345;DHT22;10330;48.816;9.278;2023-09-18T17:06:22;21.60;99.90
20345;DHT22;10330;48.816;9.278;2023-09-18T17:08:49;21.50;99.90
20345;DHT22;10330;48.816;9.278;2023-09-18T17:11:15;21.50;99.90
20345;DHT22;10330;48.816;9.278;2023-09-18T17:13:43;21.50;99.90
20345;DHT22;10330;48.816;9.278;2023-09-18T17:16:09;21.50;99.90
20345;DHT22;10330;48.816;9.278;2023-09-18T17:18:37;21.40;99.90
20345;DHT22;10330;48.816;9.278;2023-09-18T17:21:04;21.30;99.90
20345;DHT22;10330;48.816;9.278;2023-09-18T17:23:30;21.30;99.90
20345;DHT22;10330;48.816;9.278;2023-09-18T17:25:57;21.20;99.90
20345;DHT22;10330;48.816;9.278;2023-09-18T17:28:23;21.20;99.90
20345;DHT22;10330;48.816;9.278;2023-09-18T17:30:50;21.10;99.90
20345;DHT22;10330;48.816;9.278;2023-09-18T17:33:17;21.10;99.90
20345;DHT22;10330;48.816;9.278;2023-09-18T17:35:43;21.00;99.90
20345;DHT22;10330;48.816;9.278;2023-09-18T17:38:13;21.00;99.90
20345;DHT22;10330;48.816;9.278;2023-09-18T17:40:43;21.00;99.90
20345;DHT22;10330;48.816;9.278;2023-09-18T17:43:09;21.00;99.90
20345;DHT22;10330;48.816;9.278;2023-09-18T17:45:36;21.00;99.90
20345;DHT22;10330;48.816;9.278;2023-09-18T17:48:02;21.00;99.90
20345;DHT22;10330;48.816;9.278;2023-09-18T17:50:35;21.00;99.90
20345;DHT22;10330;48.816;9.278;2023-09-18T17:53:12;20.90;99.90
20345;DHT22;10330;48.816;9.278;2023-09-18T17:55:38;20.90;99.90
20345;DHT22;10330;48.816;9.278;2023-09-18T17:58:04;20.90;99.90
20345;DHT22;10330;48.816;9.278;2023-09-18T18:00:30;20.90;99.90
20345;DHT22;10330;48.816;9.278;2023-09-18T18:02:57;20.80;99.90
20345;DHT22;10330;48.816;9.278;2023-09-18T18:05:26;20.80;99.90
20345;DHT22;10330;48.816;9.278;2023-09-18T18:07:59;20.70;99.90
20345;DHT22;10330;48.816;9.278;2023-09-18T18:10:26;20.70;99.90
20345;DHT22;10330;48.816;9.278;2023-09-18T18:12:52;20.70;99.90
20345;DHT22;10330;48.816;9.278;2023-09-18T18:15:21;20.60;99.90
20345;DHT22;10330;48.816;9.278;2023-09-18T18:17:49;20.50;99.90
20345;DHT22;10330;48.816;9.278;2023-09-18T18:20:24;20.50;99.90
20345;DHT22;10330;48.816;9.278;2023-09-18T18:22:51;20.40;99.90
20345;DHT22;10330;48.816;9.278;2023-09-18T18:25:17;20.40;99.90
20345;DHT22;10330;48.816;9.278;2023-09-18T18:27:47;20.50;99.90
20345;DHT22;10330;48.816;9.278;2023-09-18T18:30:13;20.40;99.90
20345;DHT22;10330;48.816;9.278;2023-09-18T18:32:40;20.30;99.90
20345;DHT22;10330;48.816;9.278;2023-09-18T18:35:06;20.30;99.90
20345;DHT22;10330;48.816;9.278;2023-09-18T18:37:33;20.30;99.90
20345;DHT22;10330;48.816;9.278;2023-09-18T18:39:59;20.40;99.90
20345;DHT22;10330;48.816;9.278;2023-09-18T19:28:45;20.10;99.90
20345;DHT22;10330;48.816;9.278;2023-09-18T19:31:21;20.10;99.90
20345;DHT22;10330;48.816;9.278;2023-09-18T19:33:47;20.00;99.90
20345;DHT22;10330;48.816;9.278;2023-09-18T19:36:16;20.00;99.90
20345;DHT22;10330;48.816;9.278;2023-09-18T19:38:42;19.90;99.90
20345;DHT22;10330;48.816;9.278;2023-09-18T19:41:09;19.80;99.90
20345;DHT22;10330;48.816;9.278;2023-09-18T19:43:36;19.80;99.90
20345;DHT22;10330;48.816;9.278;2023-09-18T19:46:02;19.70;99.90
20345;DHT22;10330;48.816;9.278;2023-09-18T19:48:42;19.70;99.90
20345;DHT22;10330;48.816;9.278;2023-09-18T19:51:08;19.60;99.90
20345;DHT22;10330;48.816;9.278;2023-09-18T19:53:35;19.60;99.90
20345;DHT22;10330;48.816;9.278;2023-09-18T19:56:01;19.50;99.90
20345;DHT22;10330;48.816;9.278;2023-09-18T19:58:35;19.50;99.90
20345;DHT22;10330;48.816;9.278;2023-09-18T20:01:01;19.50;99.90
20345;DHT22;10330;48.816;9.278;2023-09-18T20:03:27;19.50;99.90
20345;DHT22;10330;48.816;9.278;2023-09-18T20:05:54;19.40;99.90
20345;DHT22;10330;48.816;9.278;2023-09-18T20:08:20;19.40;99.90
20345;DHT22;10330;48.816;9.278;2023-09-18T20:10:52;19.30;99.90
20345;DHT22;10330;48.816;9.278;2023-09-18T20:13:29;19.30;99.90
20345;DHT22;10330;48.816;9.278;2023-09-18T20:15:58;19.30;99.90
20345;DHT22;10330;48.816;9.278;2023-09-18T20:18:24;19.30;99.90
20345;DHT22;10330;48.816;9.278;2023-09-18T20:20:51;19.20;99.90
20345;DHT22;10330;48.816;9.278;2023-09-18T20:23:22;19.20;99.90
20345;DHT22;10330;48.816;9.278;2023-09-18T20:25:48;19.10;99.90
20345;DHT22;10330;48.816;9.278;2023-09-18T20:28:15;18.90;99.90
20345;DHT22;10330;48.816;9.278;2023-09-18T20:30:41;18.80;99.90
20345;DHT22;10330;48.816;9.278;2023-09-18T20:33:08;18.70;99.90
20345;DHT22;10330;48.816;9.278;2023-09-18T20:35:34;18.70;99.90
20345;DHT22;10330;48.816;9.278;2023-09-18T20:38:00;18.70;99.90
20345;DHT22;10330;48.816;9.278;2023-09-18T20:40:27;18.60;99.90
20345;DHT22;10330;48.816;9.278;2023-09-18T20:42:55;18.50;99.90
20345;DHT22;10330;48.816;9.278;2023-09-18T20:45:21;18.50;99.90
20345;DHT22;10330;48.816;9.278;2023-09-18T20:47:48;18.60;99.90
20345;DHT22;10330;48.816;9.278;2023-09-18T20:50:14;18.50;99.90
20345;DHT22;10330;48.816;9.278;2023-09-18T20:52:41;18.50;99.90
20345;DHT22;10330;48.816;9.278;2023-09-18T20:55:08;18.50;99.90
20345;DHT22;10330;48.816;9.278;2023-09-18T20:57:37;18.50;99.90
20345;DHT22;10330;48.816;9.278;2023-09-18T21:00:19;18.50;99.90
20345;DHT22;10330;48.816;9.278;2023-09-18T21:02:45;18.50;99.90
20345;DHT22;10330;48.816;9.278;2023-09-18T21:05:13;18.50;99.90
20345;DHT22;10330;48.816;9.278;2023-09-18T21:07:39;18.40;99.90
20345;DHT22;10330;48.816;9.278;2023-09-18T21:10:07;18.40;99.90
20345;DHT22;10330;48.816;9.278;2023-09-18T21:12:38;18.40;99.90
20345;DHT22;10330;48.816;9.278;2023-09-18T21:15:05;18.50;99.90
20345;DHT22;10330;48.816;9.278;2023-09-18T21:17:33;18.40;99.90
20345;DHT22;10330;48.816;9.278;2023-09-18T21:19:59;18.40;99.90
20345;DHT22;10330;48.816;9.278;2023-09-18T21:22:25;18.30;99.90
20345;DHT22;10330;48.816;9.278;2023-09-18T21:24:51;18.30;99.90
20345;DHT22;10330;48.816;9.278;2023-09-18T21:27:18;18.30;99.90
20345;DHT22;10330;48.816;9.278;2023-09-18T21:29:44;18.30;99.90
20345;DHT22;10330;48.816;9.278;2023-09-18T21:32:10;18.30;99.90
20345;DHT22;10330;48.816;9.278;2023-09-18T21:34:36;18.30;99.90
20345;DHT22;10330;48.816;9.278;2023-09-18T21:37:03;18.30;99.90
20345;DHT22;10330;48.816;9.278;2023-09-18T21:39:29;18.30;99.90
20345;DHT22;10330;48.816;9.278;2023-09-18T21:41:55;18.20;99.90
20345;DHT22;10330;48.816;9.278;2023-09-18T21:44:22;18.20;99.90
20345;DHT22;10330;48.816;9.278;2023-09-18T21:46:48;18.20;99.90
20345;DHT22;10330;48.816;9.278;2023-09-18T21:49:14;18.20;99.90
20345;DHT22;10330;48.816;9.278;2023-09-18T21:51:40;18.20;99.90
20345;DHT22;10330;48.816;9.278;2023-09-18T21:54:07;18.20;99.90
20345;DHT22;10330;48.816;9.278;2023-09-18T21:56:34;18.10;99.90
20345;DHT22;10330;48.816;9.278;2023-09-18T21:59:00;18.10;99.90
20345;DHT22;10330;48.816;9.278;2023-09-18T22:01:29;18.00;99.90
20345;DHT22;10330;48.816;9.278;2023-09-18T22:03:55;18.00;99.90
20345;DHT22;10330;48.816;9.278;2023-09-18T22:06:21;18.10;99.90
20345;DHT22;10330;48.816;9.278;2023-09-18T22:08:47;18.10;99.90